Time;durP1;ratioP1;P1;durP2;ratioP2;P2;SDS_P1;SDS_P2;PMS_P1;PMS_P2;Temp;Humidity;BMP_temperature;BMP_pressure;BME280_temperature;BME280_humidity;BME280_pressure;Samples;Min_cycle;Max_cycle;Signal;HPM_P1;HPM_P2
2022/04/15 00:02:01;;;;;;;1.20;1.20;;;14.10;98.00;;;;;;6277493;22;20400;-66
2022/04/15 00:04:30;;;;;;;1.20;1.20;;;14.20;98.00;;;;;;6277281;22;20416;-66
2022/04/15 00:06:58;;;;;;;1.57;1.10;;;14.10;98.00;;;;;;6277395;22;20477;-66
2022/04/15 00:09:25;;;;;;;1.67;1.30;;;14.10;98.00;;;;;;6277318;22;20419;-66
2022/04/15 00:11:55;;;;;;;2.13;1.40;;;14.00;98.00;;;;;;6277069;22;20423;-66
2022/04/15 00:14:24;;;;;;;1.20;1.20;;;13.90;98.00;;;;;;6277022;22;20488;-66
2022/04/15 00:16:51;;;;;;;1.43;1.27;;;13.90;98.00;;;;;;6249898;22;20526;-66
2022/04/15 00:19:18;;;;;;;2.27;1.40;;;13.90;98.00;;;;;;6277056;22;20415;-66
2022/04/15 00:21:45;;;;;;;1.77;1.20;;;13.90;98.00;;;;;;6277050;22;20414;-66
2022/04/15 00:24:12;;;;;;;2.63;1.30;;;14.00;98.00;;;;;;6277112;22;20412;-66
2022/04/15 00:26:38;;;;;;;1.30;1.10;;;14.20;98.00;;;;;;6276580;22;20416;-66
2022/04/15 00:29:07;;;;;;;1.40;1.20;;;14.20;98.00;;;;;;6276556;22;20447;-66
2022/04/15 00:31:35;;;;;;;1.80;1.30;;;14.20;98.00;;;;;;6276710;22;20801;-66
2022/04/15 00:34:03;;;;;;;1.40;1.10;;;14.30;98.00;;;;;;6250222;22;20420;-66
2022/04/15 00:36:31;;;;;;;1.20;1.10;;;14.00;98.00;;;;;;6276723;22;20459;-66
2022/04/15 00:38:58;;;;;;;1.40;1.17;;;13.90;98.00;;;;;;6276759;22;20415;-66
2022/04/15 00:41:27;;;;;;;1.20;1.20;;;13.90;98.00;;;;;;6276797;22;20396;-66
2022/04/15 00:43:55;;;;;;;1.20;1.20;;;13.70;98.00;;;;;;6275544;22;20478;-66
2022/04/15 00:46:23;;;;;;;1.70;1.30;;;13.60;98.00;;;;;;6276179;22;20420;-66
2022/04/15 00:48:51;;;;;;;1.40;1.10;;;13.60;98.00;;;;;;6276589;22;20400;-66
2022/04/15 00:51:18;;;;;;;1.20;1.10;;;13.50;98.00;;;;;;6276731;22;20469;-66
2022/04/15 00:53:47;;;;;;;1.43;1.13;;;13.70;98.00;;;;;;6276555;22;20889;-66
2022/04/15 00:56:14;;;;;;;1.50;1.20;;;13.90;98.00;;;;;;6276368;22;20463;-66
2022/04/15 00:58:42;;;;;;;2.20;1.47;;;13.80;98.00;;;;;;6276320;22;20414;-66
2022/04/15 01:01:10;;;;;;;2.47;1.30;;;13.80;98.00;;;;;;6276581;22;20443;-66
2022/04/15 01:03:38;;;;;;;1.40;1.30;;;13.70;98.00;;;;;;6276777;22;20472;-66
2022/04/15 01:06:08;;;;;;;1.53;1.33;;;13.70;98.00;;;;;;6276541;22;20481;-66
2022/04/15 01:08:42;;;;;;;1.73;1.30;;;13.70;98.00;;;;;;6276494;22;20443;-66
2022/04/15 01:11:12;;;;;;;1.50;1.43;;;13.70;98.00;;;;;;6275185;22;20415;-66
2022/04/15 01:13:40;;;;;;;1.30;1.00;;;13.70;98.00;;;;;;6275568;22;20872;-66
2022/04/15 01:16:09;;;;;;;2.13;1.30;;;13.70;98.00;;;;;;6275528;22;20410;-66
2022/04/15 01:18:36;;;;;;;1.43;1.30;;;13.70;98.00;;;;;;6276063;22;20902;-66
2022/04/15 01:21:04;;;;;;;1.30;1.17;;;13.70;98.00;;;;;;6276311;22;20448;-66
2022/04/15 01:23:32;;;;;;;1.20;1.00;;;13.60;98.00;;;;;;6276344;22;20409;-66
2022/04/15 01:25:59;;;;;;;1.23;1.13;;;13.60;98.00;;;;;;6276185;22;20735;-66
2022/04/15 01:28:26;;;;;;;1.87;1.30;;;13.60;98.00;;;;;;6275586;22;20459;-66
2022/04/15 01:30:53;;;;;;;1.70;1.47;;;13.60;98.00;;;;;;6275667;22;20474;-66
2022/04/15 01:33:20;;;;;;;1.30;1.10;;;13.60;98.00;;;;;;6276520;22;20458;-66
2022/04/15 01:35:47;;;;;;;1.40;1.33;;;13.70;98.00;;;;;;6275744;22;20450;-66
2022/04/15 01:38:17;;;;;;;1.30;1.20;;;13.80;98.00;;;;;;6276390;22;20429;-66
2022/04/15 01:40:46;;;;;;;1.50;1.30;;;13.80;98.00;;;;;;6275837;22;20895;-66
2022/04/15 01:43:13;;;;;;;2.03;1.53;;;13.90;98.00;;;;;;6275769;22;20887;-66
2022/04/15 01:45:40;;;;;;;1.30;1.07;;;13.90;98.00;;;;;;6249152;22;20486;-66
2022/04/15 01:48:08;;;;;;;1.40;1.30;;;13.70;98.00;;;;;;6276098;22;20421;-66
2022/04/15 01:50:36;;;;;;;1.50;1.17;;;13.50;98.00;;;;;;6275699;22;20450;-66
2022/04/15 01:53:03;;;;;;;1.77;1.27;;;13.50;98.00;;;;;;6276236;22;20473;-66
2022/04/15 01:55:30;;;;;;;1.60;1.50;;;13.50;98.00;;;;;;6275832;22;20403;-66
2022/04/15 01:58:06;;;;;;;1.90;1.40;;;13.50;98.00;;;;;;6275757;22;20482;-66
2022/04/15 02:00:33;;;;;;;1.30;1.30;;;13.50;98.00;;;;;;6276465;22;20399;-66
2022/04/15 02:03:00;;;;;;;1.40;1.20;;;13.40;98.00;;;;;;6276230;22;20400;-66
2022/04/15 02:05:27;;;;;;;1.60;1.17;;;13.40;98.00;;;;;;6276005;22;20466;-66
2022/04/15 02:07:54;;;;;;;1.30;1.10;;;13.50;98.00;;;;;;6276030;22;20449;-66
2022/04/15 02:10:21;;;;;;;1.30;1.30;;;13.40;98.00;;;;;;6275619;22;20949;-66
2022/04/15 02:12:48;;;;;;;1.50;1.27;;;13.30;98.00;;;;;;6275607;22;20433;-66
2022/04/15 02:15:16;;;;;;;1.40;1.37;;;13.30;98.00;;;;;;6275799;22;20454;-66
2022/04/15 02:17:43;;;;;;;1.20;1.17;;;13.20;98.00;;;;;;6275728;22;20468;-66
2022/04/15 02:20:12;;;;;;;1.30;1.20;;;13.10;98.00;;;;;;6275714;22;20416;-66
2022/04/15 02:22:39;;;;;;;1.20;0.97;;;13.00;98.00;;;;;;6248894;22;20411;-66
2022/04/15 02:25:10;;;;;;;1.43;1.40;;;12.90;98.00;;;;;;6275541;22;20413;-66
2022/04/15 02:27:37;;;;;;;1.20;1.20;;;12.70;98.00;;;;;;6275161;22;20425;-66
2022/04/15 02:30:05;;;;;;;1.20;1.10;;;12.70;98.00;;;;;;6275619;22;20447;-66
2022/04/15 02:32:33;;;;;;;1.33;1.27;;;12.70;98.00;;;;;;6275780;22;20446;-66
2022/04/15 02:35:00;;;;;;;1.67;1.10;;;12.70;98.00;;;;;;6275754;22;20423;-66
2022/04/15 02:37:27;;;;;;;1.30;1.10;;;12.90;98.00;;;;;;6275042;22;20982;-66
2022/04/15 02:39:55;;;;;;;1.30;1.10;;;12.70;98.00;;;;;;6275724;22;20438;-66
2022/04/15 02:42:22;;;;;;;1.60;1.20;;;12.60;98.00;;;;;;6275589;22;20438;-66
2022/04/15 02:44:50;;;;;;;1.30;1.10;;;12.50;98.00;;;;;;6248161;22;21046;-66
2022/04/15 02:47:18;;;;;;;1.20;1.07;;;12.60;98.00;;;;;;6275927;22;20400;-66
2022/04/15 02:49:47;;;;;;;2.00;1.30;;;12.60;98.00;;;;;;6248277;22;20426;-66
2022/04/15 02:52:15;;;;;;;1.30;1.17;;;12.60;98.00;;;;;;6275788;22;20411;-66
2022/04/15 02:54:42;;;;;;;1.40;1.30;;;12.50;98.00;;;;;;6274587;22;20481;-66
2022/04/15 02:57:09;;;;;;;1.20;1.07;;;12.50;98.00;;;;;;6275179;22;20964;-66
2022/04/15 02:59:36;;;;;;;1.80;1.23;;;12.40;98.00;;;;;;6275439;22;20460;-66
2022/04/15 03:02:03;;;;;;;1.20;1.10;;;12.30;98.00;;;;;;6275433;22;20446;-66
2022/04/15 03:04:30;;;;;;;1.50;1.30;;;12.20;98.00;;;;;;6275359;22;20773;-66
2022/04/15 03:06:58;;;;;;;1.30;1.20;;;12.10;98.00;;;;;;6248395;22;20395;-68
2022/04/15 03:09:26;;;;;;;1.40;1.40;;;12.10;98.00;;;;;;6275389;22;20409;-66
2022/04/15 03:11:53;;;;;;;1.30;1.00;;;12.20;98.00;;;;;;6275383;22;20468;-67
2022/04/15 03:14:20;;;;;;;1.53;1.30;;;12.20;98.00;;;;;;6275421;22;20405;-67
2022/04/15 03:16:50;;;;;;;1.20;1.00;;;12.10;98.00;;;;;;6274750;22;20798;-66
2022/04/15 03:19:17;;;;;;;1.50;1.30;;;12.00;98.00;;;;;;6247967;22;20422;-67
2022/04/15 03:21:44;;;;;;;2.70;1.27;;;12.00;98.00;;;;;;6275068;22;20471;-67
2022/04/15 03:24:13;;;;;;;1.87;1.63;;;12.00;98.00;;;;;;6275218;22;20434;-66
2022/04/15 03:26:39;;;;;;;1.90;1.27;;;11.90;98.00;;;;;;6275192;22;20421;-67
2022/04/15 03:29:06;;;;;;;1.87;1.47;;;11.80;98.00;;;;;;6275339;22;20421;-67
2022/04/15 03:31:33;;;;;;;1.20;1.10;;;11.70;98.00;;;;;;6274775;22;20791;-67
2022/04/15 03:34:00;;;;;;;1.57;1.10;;;11.80;98.00;;;;;;6275448;22;20445;-67
2022/04/15 03:36:27;;;;;;;2.07;1.40;;;12.00;98.00;;;;;;6274911;22;20414;-67
2022/04/15 03:38:55;;;;;;;1.93;1.50;;;12.10;98.00;;;;;;6275029;22;20468;-67
2022/04/15 03:41:24;;;;;;;1.40;1.30;;;12.10;98.00;;;;;;6275019;22;20460;-67
2022/04/15 03:43:51;;;;;;;2.60;1.57;;;12.00;98.00;;;;;;6275308;22;20447;-67
2022/04/15 03:46:19;;;;;;;1.20;1.03;;;11.90;98.00;;;;;;6275234;22;20422;-67
2022/04/15 03:48:46;;;;;;;2.03;1.20;;;11.70;98.00;;;;;;6275370;22;20447;-67
2022/04/15 03:51:13;;;;;;;1.70;1.50;;;11.70;98.00;;;;;;6248442;22;20451;-67
2022/04/15 03:53:41;;;;;;;1.30;1.17;;;11.60;98.00;;;;;;6274763;22;20417;-67
2022/04/15 03:56:08;;;;;;;2.07;1.30;;;11.60;98.00;;;;;;6247869;22;20430;-67
2022/04/15 03:58:36;;;;;;;1.30;1.20;;;11.60;98.00;;;;;;6247836;22;20425;-67
2022/04/15 04:01:04;;;;;;;8.63;2.00;;;11.70;98.00;;;;;;6274120;22;20914;-66
2022/04/15 04:03:31;;;;;;;1.60;1.23;;;11.70;98.00;;;;;;6274768;22;20420;-66
2022/04/15 04:05:58;;;;;;;3.03;1.30;;;11.60;98.00;;;;;;6274672;22;20440;-67
2022/04/15 04:08:25;;;;;;;2.77;2.03;;;11.50;98.00;;;;;;6275084;22;20415;-67
2022/04/15 04:10:52;;;;;;;2.07;1.40;;;11.60;98.00;;;;;;6274510;22;20415;-67
2022/04/15 04:13:19;;;;;;;1.30;1.20;;;11.50;98.00;;;;;;6274965;22;20398;-67
2022/04/15 04:15:47;;;;;;;1.57;1.50;;;11.40;98.00;;;;;;6247931;22;20413;-67
2022/04/15 04:18:14;;;;;;;1.30;1.20;;;11.30;98.00;;;;;;6275283;22;20459;-67
2022/04/15 04:20:41;;;;;;;1.20;1.00;;;11.30;98.00;;;;;;6275169;22;20422;-66
2022/04/15 04:23:09;;;;;;;1.40;1.20;;;11.30;98.00;;;;;;6275143;22;20731;-66
2022/04/15 04:25:36;;;;;;;1.40;1.20;;;11.10;98.00;;;;;;6274730;22;20400;-67
2022/04/15 04:28:03;;;;;;;2.07;1.50;;;11.10;98.00;;;;;;6274870;22;20462;-67
2022/04/15 04:30:30;;;;;;;1.53;1.30;;;11.10;98.00;;;;;;6275008;22;20419;-67
2022/04/15 04:32:59;;;;;;;1.60;1.30;;;11.20;98.00;;;;;;6275178;22;20709;-67
2022/04/15 04:35:26;;;;;;;1.67;1.50;;;11.20;98.00;;;;;;6276156;22;20510;-67
2022/04/15 04:37:54;;;;;;;1.40;1.20;;;11.20;98.00;;;;;;6276884;22;20441;-67
2022/04/15 04:40:20;;;;;;;1.63;1.47;;;11.20;98.00;;;;;;6276808;22;20439;-66
2022/04/15 04:42:51;;;;;;;2.03;1.40;;;11.20;98.00;;;;;;6276312;22;20920;-67
2022/04/15 04:45:19;;;;;;;1.70;1.23;;;11.00;98.00;;;;;;6276345;22;20908;-66
2022/04/15 04:47:47;;;;;;;1.50;1.40;;;11.00;98.00;;;;;;6276658;22;20443;-67
2022/04/15 04:50:16;;;;;;;1.40;1.20;;;10.90;98.00;;;;;;6276736;22;20428;-67
2022/04/15 04:52:43;;;;;;;2.80;1.20;;;11.00;98.00;;;;;;6276266;22;20400;-67
2022/04/15 04:55:10;;;;;;;1.60;1.20;;;10.80;98.00;;;;;;6276446;22;20418;-67
2022/04/15 04:57:38;;;;;;;1.97;1.50;;;10.90;98.00;;;;;;6276679;22;20565;-67
2022/04/15 05:00:13;;;;;;;2.63;1.50;;;10.90;98.00;;;;;;6276429;22;20420;-67
2022/04/15 05:02:41;;;;;;;1.20;1.00;;;10.90;98.00;;;;;;6276043;22;20424;-66
2022/04/15 05:05:11;;;;;;;1.30;1.20;;;11.00;98.00;;;;;;6276468;22;20505;-67
2022/04/15 05:07:40;;;;;;;1.20;1.20;;;11.30;98.00;;;;;;6276687;22;20427;-67
2022/04/15 05:10:08;;;;;;;1.40;1.27;;;11.40;98.00;;;;;;6276575;22;20900;-67
2022/04/15 05:12:35;;;;;;;1.30;1.20;;;11.50;98.00;;;;;;6276796;22;20722;-67
2022/04/15 05:15:02;;;;;;;1.33;1.10;;;11.50;98.00;;;;;;6276517;22;20408;-67
2022/04/15 05:17:29;;;;;;;1.20;1.00;;;11.60;98.00;;;;;;6276330;22;20466;-67
2022/04/15 05:19:56;;;;;;;1.20;1.10;;;11.50;98.00;;;;;;6249196;22;20938;-67
2022/04/15 05:22:23;;;;;;;2.13;1.50;;;11.60;98.00;;;;;;6275816;22;20473;-66
2022/04/15 05:24:52;;;;;;;2.23;1.17;;;11.50;98.00;;;;;;6276320;22;20499;-67
2022/04/15 05:27:20;;;;;;;1.60;1.50;;;11.50;98.00;;;;;;6276985;22;20500;-67
2022/04/15 05:29:47;;;;;;;1.43;1.20;;;11.50;98.00;;;;;;6249014;22;20931;-67
2022/04/15 05:32:14;;;;;;;1.70;1.40;;;11.60;98.00;;;;;;6276549;22;20464;-67
2022/04/15 05:34:42;;;;;;;1.33;1.17;;;11.70;98.00;;;;;;6275855;22;20420;-67
2022/04/15 05:37:10;;;;;;;1.20;1.00;;;11.70;98.00;;;;;;6276118;22;21065;-67
2022/04/15 05:39:37;;;;;;;1.33;1.30;;;11.70;98.00;;;;;;6276229;22;20919;-66
2022/04/15 05:42:06;;;;;;;1.30;1.30;;;11.90;98.00;;;;;;6275769;22;20437;-66
2022/04/15 05:44:33;;;;;;;1.20;1.00;;;11.90;98.00;;;;;;6275654;22;20455;-67
2022/04/15 05:47:00;;;;;;;1.80;1.43;;;12.00;98.00;;;;;;6276061;22;20416;-67
2022/04/15 05:49:27;;;;;;;1.47;1.47;;;12.10;98.00;;;;;;6275762;22;20417;-67
2022/04/15 05:51:54;;;;;;;1.20;1.10;;;12.10;98.00;;;;;;6275300;22;20887;-67
2022/04/15 05:54:22;;;;;;;1.20;1.10;;;12.20;98.00;;;;;;6249112;22;20398;-67
2022/04/15 05:56:49;;;;;;;2.13;1.33;;;12.20;98.00;;;;;;6248633;22;20462;-67
2022/04/15 05:59:20;;;;;;;1.20;1.10;;;12.30;98.00;;;;;;6275813;22;20457;-66
2022/04/15 06:01:48;;;;;;;2.13;1.30;;;12.50;98.00;;;;;;6275844;22;20490;-67
2022/04/15 06:04:15;;;;;;;1.90;1.50;;;12.50;98.00;;;;;;6276213;22;20406;-67
2022/04/15 06:06:42;;;;;;;1.73;1.40;;;12.60;98.00;;;;;;6275759;22;20417;-67
2022/04/15 06:09:09;;;;;;;1.70;1.43;;;12.50;98.00;;;;;;6276101;22;20444;-67
2022/04/15 06:11:36;;;;;;;1.40;1.20;;;12.50;98.00;;;;;;6248912;22;20413;-66
2022/04/15 06:14:06;;;;;;;1.20;1.20;;;12.60;98.00;;;;;;6276191;22;20804;-67
2022/04/15 06:16:37;;;;;;;1.40;1.30;;;12.60;98.00;;;;;;6276212;22;20454;-67
2022/04/15 06:19:05;;;;;;;2.07;1.70;;;12.70;98.00;;;;;;6276331;22;20426;-66
2022/04/15 06:21:32;;;;;;;1.60;1.30;;;12.60;98.00;;;;;;6275632;22;20399;-67
2022/04/15 06:24:01;;;;;;;1.37;1.30;;;12.70;98.00;;;;;;6275775;22;20735;-66
2022/04/15 06:26:28;;;;;;;1.30;1.23;;;12.70;98.00;;;;;;6275769;22;20407;-66
2022/04/15 06:28:55;;;;;;;2.17;1.40;;;12.90;98.00;;;;;;6275367;22;20938;-67
2022/04/15 06:31:22;;;;;;;1.30;1.20;;;13.00;98.00;;;;;;6275563;22;20442;-66
2022/04/15 06:33:52;;;;;;;2.50;1.60;;;13.10;98.00;;;;;;6275681;22;20404;-66
2022/04/15 06:36:19;;;;;;;2.23;1.73;;;13.20;98.00;;;;;;6248422;22;20456;-67
2022/04/15 06:38:48;;;;;;;1.57;1.40;;;13.30;98.00;;;;;;6248714;22;20493;-66
2022/04/15 06:41:16;;;;;;;1.60;1.10;;;13.50;98.00;;;;;;6248388;22;20471;-66
2022/04/15 06:43:43;;;;;;;1.43;1.43;;;13.50;98.00;;;;;;6248541;22;20443;-66
2022/04/15 06:46:10;;;;;;;2.17;1.50;;;13.60;98.00;;;;;;6275643;22;20776;-66
2022/04/15 06:48:37;;;;;;;1.30;1.10;;;13.70;98.00;;;;;;6248964;22;20417;-66
2022/04/15 06:51:05;;;;;;;2.43;1.70;;;13.80;98.00;;;;;;6275232;22;20443;-66
2022/04/15 06:53:32;;;;;;;1.50;1.50;;;13.90;98.00;;;;;;6275682;22;20773;-66
2022/04/15 06:56:00;;;;;;;1.63;1.27;;;13.90;98.00;;;;;;6275086;22;20495;-66
2022/04/15 06:58:27;;;;;;;1.70;1.20;;;13.90;98.00;;;;;;6248388;22;20456;-66
2022/04/15 07:00:54;;;;;;;1.20;1.10;;;14.00;98.00;;;;;;6275625;22;20448;-67
2022/04/15 07:03:21;;;;;;;2.00;1.30;;;14.00;98.00;;;;;;6275481;22;20430;-66
2022/04/15 07:05:48;;;;;;;1.37;1.30;;;14.10;98.00;;;;;;6275484;22;20802;-66
2022/04/15 07:08:16;;;;;;;1.70;1.27;;;14.20;98.00;;;;;;6274676;22;20864;-66
2022/04/15 07:10:43;;;;;;;2.63;1.77;;;14.30;98.00;;;;;;6274684;22;20439;-66
2022/04/15 07:13:12;;;;;;;2.07;1.53;;;14.50;98.00;;;;;;6274636;22;20401;-66
2022/04/15 07:15:39;;;;;;;4.20;1.73;;;14.60;98.00;;;;;;6275103;22;20427;-66
2022/04/15 07:18:06;;;;;;;2.00;1.43;;;14.70;98.00;;;;;;6275420;22;20456;-67
2022/04/15 07:20:33;;;;;;;1.40;1.40;;;14.90;98.00;;;;;;6274735;22;20902;-66
2022/04/15 07:23:01;;;;;;;2.57;1.80;;;15.00;98.00;;;;;;6274680;22;20424;-66
2022/04/15 07:25:30;;;;;;;1.30;1.10;;;15.00;98.00;;;;;;6275222;22;20440;-69
2022/04/15 07:27:57;;;;;;;1.40;1.27;;;15.00;98.00;;;;;;6274915;22;20411;-69
2022/04/15 07:30:27;;;;;;;1.93;1.73;;;15.00;98.00;;;;;;6275223;22;20521;-69
2022/04/15 07:32:54;;;;;;;1.70;1.40;;;15.00;98.00;;;;;;6275045;22;20426;-69
2022/04/15 07:35:21;;;;;;;2.20;1.97;;;15.20;98.00;;;;;;6275261;22;20398;-69
2022/04/15 07:37:48;;;;;;;2.73;2.13;;;15.30;98.00;;;;;;6275231;22;20451;-69
2022/04/15 07:40:15;;;;;;;2.30;1.67;;;15.40;98.00;;;;;;6275105;22;20701;-69
2022/04/15 07:42:43;;;;;;;1.60;1.60;;;15.50;98.00;;;;;;6274980;22;20442;-70
2022/04/15 07:45:10;;;;;;;3.43;2.13;;;15.60;98.00;;;;;;6274732;22;20479;-69
2022/04/15 07:47:38;;;;;;;2.10;1.50;;;15.70;98.00;;;;;;6275144;22;20412;-69
2022/04/15 07:50:06;;;;;;;3.30;2.07;;;15.70;98.00;;;;;;6274959;22;20782;-69
2022/04/15 07:52:39;;;;;;;3.80;2.30;;;15.80;98.00;;;;;;6275484;22;20450;-69
2022/04/15 07:55:08;;;;;;;2.37;1.40;;;16.00;98.00;;;;;;6248204;22;20408;-69
2022/04/15 07:57:35;;;;;;;2.30;2.10;;;16.20;98.00;;;;;;6248882;22;20407;-69
2022/04/15 08:00:08;;;;;;;1.93;1.60;;;16.40;98.00;;;;;;6274687;22;20459;-69
2022/04/15 08:02:37;;;;;;;13.83;1.90;;;16.50;98.00;;;;;;6275735;22;20401;-69
2022/04/15 08:05:07;;;;;;;2.20;1.77;;;16.60;98.00;;;;;;6274831;22;20400;-69
2022/04/15 08:07:34;;;;;;;3.40;1.80;;;16.70;98.00;;;;;;6274915;22;20879;-69
2022/04/15 08:10:02;;;;;;;3.40;2.10;;;16.80;98.00;;;;;;6276880;22;20403;-69
2022/04/15 08:12:29;;;;;;;4.70;2.30;;;16.80;98.00;;;;;;6250088;22;20416;-69
2022/04/15 08:14:56;;;;;;;3.00;2.20;;;16.80;98.00;;;;;;6275266;22;20404;-69
2022/04/15 08:17:25;;;;;;;3.57;2.20;;;16.80;98.00;;;;;;6274890;22;20436;-72
2022/04/15 08:19:52;;;;;;;6.63;2.63;;;16.90;98.00;;;;;;6275311;22;20431;-70
2022/04/15 08:22:19;;;;;;;3.43;2.33;;;16.90;98.00;;;;;;6275855;22;20880;-70
2022/04/15 08:24:48;;;;;;;2.23;1.63;;;17.00;98.00;;;;;;6275564;22;20443;-68
2022/04/15 08:27:15;;;;;;;2.43;2.10;;;17.10;98.00;;;;;;6275622;22;20454;-67
2022/04/15 08:29:42;;;;;;;2.23;2.10;;;17.10;98.00;;;;;;6275691;22;20431;-68
2022/04/15 08:32:10;;;;;;;2.50;2.20;;;17.30;98.00;;;;;;6248647;22;20466;-67
2022/04/15 08:34:38;;;;;;;2.73;1.90;;;17.30;98.00;;;;;;6275936;22;20419;-66
2022/04/15 08:37:05;;;;;;;4.07;2.50;;;17.40;98.00;;;;;;6275274;22;20930;-67
2022/04/15 08:39:33;;;;;;;5.73;1.97;;;17.60;98.00;;;;;;6275802;22;20437;-67
2022/04/15 08:42:00;;;;;;;2.90;2.13;;;17.70;98.00;;;;;;6275277;22;20405;-67
2022/04/15 08:44:27;;;;;;;2.77;2.10;;;17.80;98.00;;;;;;6248431;22;20900;-67
2022/04/15 08:46:57;;;;;;;5.47;3.20;;;17.80;98.00;;;;;;6275311;22;20711;-67
2022/04/15 08:49:26;;;;;;;3.50;2.20;;;17.90;98.00;;;;;;6274944;22;20451;-67
2022/04/15 08:51:57;;;;;;;2.50;2.00;;;17.80;98.00;;;;;;6275829;22;20736;-67
2022/04/15 08:54:24;;;;;;;2.07;1.87;;;17.90;98.00;;;;;;6275986;22;20462;-67
2022/04/15 08:56:53;;;;;;;2.83;2.10;;;18.00;98.00;;;;;;6275720;22;20478;-67
2022/04/15 08:59:20;;;;;;;2.03;1.70;;;18.20;98.00;;;;;;6223545;22;20449;-67
2022/04/15 09:01:47;;;;;;;2.93;2.27;;;18.40;98.00;;;;;;6275489;22;21057;-67
2022/04/15 09:04:15;;;;;;;3.87;2.57;;;18.60;98.00;;;;;;6275481;22;20420;-67
2022/04/15 09:06:43;;;;;;;2.80;2.07;;;18.90;98.00;;;;;;6275471;22;20397;-66
2022/04/15 09:09:14;;;;;;;4.00;2.17;;;19.10;98.00;;;;;;6275212;22;20400;-66
2022/04/15 09:11:44;;;;;;;2.90;2.37;;;19.10;96.90;;;;;;6275457;22;20484;-66
2022/04/15 09:14:13;;;;;;;3.87;2.83;;;19.00;97.50;;;;;;6275521;22;20484;-66
2022/04/15 09:16:41;;;;;;;3.50;2.50;;;19.00;97.40;;;;;;6274462;22;20420;-66
2022/04/15 09:19:09;;;;;;;2.50;1.80;;;19.00;96.90;;;;;;6274535;22;20853;-66
2022/04/15 09:21:37;;;;;;;10.83;3.00;;;19.00;97.30;;;;;;6275020;22;20482;-67
2022/04/15 09:24:07;;;;;;;3.80;2.50;;;18.90;96.10;;;;;;6275461;22;20428;-66
2022/04/15 09:26:37;;;;;;;2.90;2.63;;;18.80;95.90;;;;;;6274619;22;20471;-66
2022/04/15 09:29:04;;;;;;;6.03;2.47;;;18.90;95.20;;;;;;6275410;22;20420;-66
2022/04/15 09:31:34;;;;;;;4.03;2.87;;;19.20;94.20;;;;;;6275191;22;20490;-66
2022/04/15 09:34:02;;;;;;;3.93;2.50;;;19.30;93.00;;;;;;6247698;22;20496;-66
2022/04/15 09:36:32;;;;;;;2.73;2.23;;;19.50;92.90;;;;;;6275228;22;21084;-66
2022/04/15 09:39:10;;;;;;;3.40;2.40;;;19.80;92.70;;;;;;6275272;22;20429;-67
2022/04/15 09:41:40;;;;;;;3.37;2.47;;;20.00;92.50;;;;;;6275269;22;20746;-66
2022/04/15 09:44:12;;;;;;;5.13;3.10;;;20.30;92.30;;;;;;6247427;22;20452;-66
2022/04/15 09:46:42;;;;;;;3.50;2.50;;;20.40;91.30;;;;;;6249207;22;20397;-66
2022/04/15 09:49:10;;;;;;;5.47;2.40;;;20.40;87.30;;;;;;6274937;22;20393;-67
2022/04/15 09:51:43;;;;;;;3.73;2.80;;;20.40;84.60;;;;;;6274529;22;20872;-66
2022/04/15 09:54:12;;;;;;;2.80;2.10;;;20.40;87.00;;;;;;6274754;22;20856;-66
2022/04/15 09:56:43;;;;;;;10.67;3.20;;;20.40;87.60;;;;;;6275158;22;20735;-67
2022/04/15 09:59:15;;;;;;;5.77;3.00;;;20.50;87.90;;;;;;6275022;22;20428;-67
2022/04/15 10:01:45;;;;;;;5.20;2.53;;;20.50;88.50;;;;;;6271302;22;20478;-66
2022/04/15 10:04:13;;;;;;;5.60;2.87;;;20.50;86.30;;;;;;6272665;22;20491;-66
2022/04/15 10:06:41;;;;;;;6.77;3.97;;;20.70;87.50;;;;;;6272242;22;20393;-67
2022/04/15 10:09:12;;;;;;;3.80;3.20;;;20.70;85.30;;;;;;6271747;22;20417;-67
2022/04/15 10:11:43;;;;;;;4.80;2.67;;;20.90;86.80;;;;;;6273939;22;20887;-67
2022/04/15 10:14:11;;;;;;;4.00;2.50;;;21.00;86.30;;;;;;6272682;22;20929;-66
2022/04/15 10:16:39;;;;;;;3.47;2.40;;;20.90;84.90;;;;;;6273599;22;20492;-67
2022/04/15 10:19:07;;;;;;;3.70;2.53;;;20.80;84.30;;;;;;6273948;22;20432;-67
2022/04/15 10:21:37;;;;;;;5.50;3.40;;;20.80;84.70;;;;;;6274243;22;20401;-67
2022/04/15 10:24:08;;;;;;;5.90;3.27;;;20.80;84.70;;;;;;6246929;22;20503;-67
2022/04/15 10:26:35;;;;;;;4.80;2.70;;;21.00;85.90;;;;;;6274149;22;20729;-67
2022/04/15 10:29:05;;;;;;;4.97;2.57;;;21.10;83.50;;;;;;6273841;22;20480;-67
2022/04/15 10:31:43;;;;;;;5.70;3.20;;;21.30;85.60;;;;;;6273296;22;20724;-67
2022/04/15 10:34:13;;;;;;;3.17;2.10;;;21.40;83.40;;;;;;6274519;22;20855;-67
2022/04/15 10:36:44;;;;;;;3.77;2.47;;;21.40;83.00;;;;;;6246689;22;20427;-67
2022/04/15 10:39:24;;;;;;;2.87;1.90;;;21.60;82.80;;;;;;6274191;22;20425;-67
2022/04/15 10:41:58;;;;;;;4.97;2.10;;;21.50;82.80;;;;;;6274581;22;21022;-67
2022/04/15 10:44:37;;;;;;;3.00;2.30;;;21.50;82.40;;;;;;6274428;22;20460;-67
2022/04/15 10:47:28;;;;;;;5.07;2.80;;;21.60;80.30;;;;;;6274923;22;20420;-67
2022/04/15 10:49:56;;;;;;;2.60;2.23;;;21.90;82.70;;;;;;6273915;22;20472;-66
2022/04/15 10:52:25;;;;;;;4.00;2.70;;;22.00;78.40;;;;;;6274092;22;20852;-67
2022/04/15 10:54:54;;;;;;;3.53;2.20;;;22.10;80.00;;;;;;6274409;22;20420;-67
2022/04/15 10:57:22;;;;;;;2.90;2.00;;;22.10;78.40;;;;;;6274572;22;20392;-67
2022/04/15 11:02:41;;;;;;;6.37;3.03;;;22.20;78.80;;;;;;6261758;22;20412;-67
2022/04/15 11:05:11;;;;;;;3.50;2.10;;;22.50;78.40;;;;;;6273854;22;20417;-67
2022/04/15 11:07:44;;;;;;;4.20;2.53;;;22.30;79.20;;;;;;6274228;22;20392;-68
2022/04/15 11:10:18;;;;;;;3.30;2.20;;;22.40;78.90;;;;;;6274313;22;20431;-69
2022/04/15 11:12:45;;;;;;;3.53;2.33;;;22.50;80.00;;;;;;6273791;22;20726;-67
2022/04/15 11:15:15;;;;;;;2.80;2.00;;;22.70;75.60;;;;;;6273339;22;20427;-67
2022/04/15 11:17:47;;;;;;;2.77;1.73;;;22.70;75.50;;;;;;6273961;22;20432;-68
2022/04/15 11:20:15;;;;;;;2.00;1.57;;;23.00;75.00;;;;;;6274513;22;20487;-67
2022/04/15 11:22:42;;;;;;;2.13;2.00;;;23.20;71.50;;;;;;6274318;22;20400;-67
2022/04/15 11:25:11;;;;;;;4.77;2.33;;;22.80;71.70;;;;;;6274146;22;20402;-67
2022/04/15 11:27:41;;;;;;;3.17;2.03;;;22.30;72.90;;;;;;6274298;22;20396;-67
2022/04/15 11:30:17;;;;;;;3.50;2.10;;;22.20;75.10;;;;;;6274273;22;20478;-67
2022/04/15 11:32:48;;;;;;;4.70;2.90;;;22.50;75.50;;;;;;6273973;22;20405;-67
2022/04/15 11:35:28;;;;;;;5.50;2.07;;;22.80;76.90;;;;;;6274053;22;20898;-68
2022/04/15 11:37:58;;;;;;;4.20;2.37;;;23.10;74.70;;;;;;6284154;22;20393;-68
2022/04/15 11:40:28;;;;;;;3.50;2.83;;;23.40;75.80;;;;;;6274477;22;20425;-67
2022/04/15 11:42:58;;;;;;;5.03;3.10;;;23.30;76.80;;;;;;6274360;22;20392;-67
2022/04/15 11:45:35;;;;;;;5.20;2.60;;;22.90;75.90;;;;;;6248960;22;20499;-67
2022/04/15 11:48:21;;;;;;;4.10;2.33;;;22.30;75.10;;;;;;6276305;22;20400;-67
2022/04/15 11:50:50;;;;;;;2.83;2.20;;;21.90;76.70;;;;;;6275524;22;20397;-67
2022/04/15 11:53:18;;;;;;;5.10;2.57;;;22.00;78.20;;;;;;6276256;22;20552;-68
2022/04/15 11:55:53;;;;;;;2.87;2.13;;;22.50;74.70;;;;;;6275929;22;20883;-67
2022/04/15 11:58:21;;;;;;;2.70;2.10;;;22.90;77.10;;;;;;6276166;22;20401;-68
2022/04/15 12:00:55;;;;;;;3.60;2.60;;;23.50;74.80;;;;;;6275617;22;20440;-68
2022/04/15 12:03:23;;;;;;;6.83;2.53;;;23.80;73.80;;;;;;6275834;22;20424;-67
2022/04/15 12:05:54;;;;;;;3.90;2.67;;;24.10;75.40;;;;;;6276008;22;20487;-67
2022/04/15 12:08:21;;;;;;;4.17;2.40;;;24.00;73.90;;;;;;6273495;22;20420;-68
2022/04/15 12:10:54;;;;;;;4.10;2.70;;;24.20;73.20;;;;;;6276094;22;20807;-68
2022/04/15 12:13:21;;;;;;;3.30;2.07;;;24.00;69.50;;;;;;6275045;22;20428;-68
2022/04/15 12:15:48;;;;;;;2.83;2.60;;;23.90;70.40;;;;;;6275625;22;20416;-67
2022/04/15 12:18:16;;;;;;;2.77;2.17;;;23.90;71.00;;;;;;6276039;22;20474;-68
2022/04/15 12:20:44;;;;;;;6.70;2.17;;;23.60;71.00;;;;;;6275956;22;20523;-68
2022/04/15 12:23:14;;;;;;;3.40;2.40;;;23.50;72.40;;;;;;6275884;22;20423;-68
2022/04/15 12:31:27;;;;;;;2.90;2.17;;;23.80;70.50;;;;;;6275928;22;20897;-67
2022/04/15 12:33:56;;;;;;;2.67;2.10;;;24.10;70.30;;;;;;6276126;22;20397;-68
2022/04/15 12:36:23;;;;;;;2.67;2.10;;;24.30;71.10;;;;;;6275812;22;20409;-67
2022/04/15 12:39:05;;;;;;;4.70;2.03;;;24.40;71.70;;;;;;6275631;22;20911;-68
2022/04/15 12:41:48;;;;;;;3.67;2.23;;;24.60;72.30;;;;;;6275645;22;20425;-68
2022/04/15 12:44:18;;;;;;;2.47;1.80;;;24.80;69.30;;;;;;6275606;22;20477;-69
2022/04/15 12:46:46;;;;;;;3.33;1.90;;;25.20;69.90;;;;;;6276279;22;20884;-68
2022/04/15 12:49:30;;;;;;;7.80;2.13;;;25.30;67.40;;;;;;6276651;22;20960;-68
2022/04/15 12:52:12;;;;;;;2.70;1.90;;;25.50;67.50;;;;;;6276608;22;20764;-68
2022/04/15 12:54:59;;;;;;;4.20;2.50;;;25.70;66.40;;;;;;6272944;22;20444;-68
2022/04/15 12:57:31;;;;;;;2.67;2.07;;;25.90;66.10;;;;;;6276520;22;20455;-68
2022/04/15 12:59:58;;;;;;;3.43;2.40;;;25.60;66.30;;;;;;6275976;22;20498;-68
2022/04/15 13:02:25;;;;;;;2.77;2.20;;;25.50;66.30;;;;;;6275646;22;20431;-68